createdAt,value
2023-05-16T00:01:25.030Z,1.50
2023-05-16T00:03:51.508Z,1.90
2023-05-16T00:06:18.041Z,1.70
2023-05-16T00:08:44.486Z,1.40
2023-05-16T00:11:10.850Z,1.60
2023-05-16T00:13:37.593Z,1.52
2023-05-16T00:16:04.536Z,1.95
2023-05-16T00:18:31.190Z,1.63
2023-05-16T00:20:57.712Z,1.50
2023-05-16T00:23:24.047Z,1.95
2023-05-16T00:25:50.447Z,1.73
2023-05-16T00:28:16.886Z,1.60
2023-05-16T00:30:43.272Z,1.30
2023-05-16T00:33:09.653Z,1.42
2023-05-16T00:35:36.083Z,2.00
2023-05-16T00:38:02.409Z,1.10
2023-05-16T00:40:29.018Z,1.77
2023-05-16T00:42:55.656Z,1.38
2023-05-16T00:45:22.334Z,1.75
2023-05-16T00:47:48.891Z,1.52
2023-05-16T00:50:15.359Z,1.77
2023-05-16T00:52:41.856Z,1.60
2023-05-16T00:55:10.422Z,1.50
2023-05-16T00:57:38.224Z,1.20
2023-05-16T01:00:06.740Z,1.30
2023-05-16T01:02:34.815Z,1.42
2023-05-16T01:05:01.295Z,2.00
2023-05-16T01:07:27.680Z,1.40
2023-05-16T01:09:54.276Z,2.25
2023-05-16T01:12:34.125Z,1.83
2023-05-16T01:15:12.011Z,1.77
2023-05-16T01:17:50.657Z,1.75
2023-05-16T01:20:26.006Z,1.27
2023-05-16T01:23:05.491Z,2.00
2023-05-16T01:25:57.064Z,2.25
2023-05-16T01:28:24.702Z,1.98
2023-05-16T01:30:51.865Z,1.92
2023-05-16T01:33:18.229Z,1.63
2023-05-16T01:35:59.466Z,1.35
2023-05-16T01:41:08.480Z,1.50
2023-05-16T01:43:42.123Z,1.33
2023-05-16T01:46:20.807Z,1.33
2023-05-16T01:49:02.081Z,1.80
2023-05-16T01:54:01.737Z,1.70
2023-05-16T01:56:29.762Z,1.67
2023-05-16T01:58:57.997Z,1.98
2023-05-16T02:01:24.386Z,1.77
2023-05-16T02:03:51.642Z,1.60
2023-05-16T02:06:18.118Z,1.90
2023-05-16T02:08:44.758Z,2.10
2023-05-16T02:11:11.174Z,2.10
2023-05-16T02:13:37.629Z,1.42
2023-05-16T02:16:04.309Z,2.03
2023-05-16T02:18:30.742Z,1.83
2023-05-16T02:20:57.067Z,1.38
2023-05-16T02:23:23.836Z,1.70
2023-05-16T02:25:50.286Z,1.70
2023-05-16T02:28:16.679Z,1.33
2023-05-16T02:30:43.029Z,1.63
2023-05-16T02:33:11.006Z,1.60
2023-05-16T02:35:37.352Z,1.70
2023-05-16T02:38:03.681Z,1.45
2023-05-16T02:40:30.131Z,2.13
2023-05-16T02:42:56.564Z,2.00
2023-05-16T02:45:22.905Z,2.28
2023-05-16T02:47:49.323Z,1.75
2023-05-16T02:50:15.732Z,2.03
2023-05-16T02:52:42.073Z,1.88
2023-05-16T02:55:21.746Z,2.22
2023-05-16T02:57:48.898Z,2.20
2023-05-16T03:00:17.761Z,1.67
2023-05-16T03:02:45.512Z,1.63
2023-05-16T03:05:12.165Z,1.67
2023-05-16T03:07:39.294Z,1.60
2023-05-16T03:10:06.886Z,2.10
2023-05-16T03:12:33.594Z,1.85
2023-05-16T03:14:59.978Z,1.52
2023-05-16T03:17:26.570Z,1.77
2023-05-16T03:19:53.942Z,1.88
2023-05-16T03:22:20.539Z,2.22
2023-05-16T03:24:47.226Z,1.90
2023-05-16T03:27:13.674Z,1.60
2023-05-16T03:29:40.010Z,1.52
2023-05-16T03:32:06.589Z,2.05
2023-05-16T03:34:32.947Z,2.28
2023-05-16T03:36:59.428Z,1.95
2023-05-16T03:39:25.956Z,1.63
2023-05-16T03:41:52.534Z,1.70
2023-05-16T03:44:18.866Z,2.08
2023-05-16T03:46:45.718Z,1.33
2023-05-16T03:49:12.017Z,1.85
2023-05-16T03:51:38.386Z,1.80
2023-05-16T03:54:05.151Z,1.88
2023-05-16T03:56:31.633Z,1.88
2023-05-16T03:58:58.308Z,1.55
2023-05-16T04:01:24.767Z,1.70
2023-05-16T04:03:51.395Z,1.17
2023-05-16T04:06:17.980Z,1.67
2023-05-16T04:08:44.953Z,1.77
2023-05-16T04:11:11.636Z,1.45
2023-05-16T04:13:38.074Z,1.95
2023-05-16T04:16:05.046Z,1.73
2023-05-16T04:18:31.482Z,1.60
2023-05-16T04:20:57.869Z,1.40
2023-05-16T04:23:24.303Z,1.70
2023-05-16T04:25:50.774Z,1.98
2023-05-16T04:28:17.292Z,1.77
2023-05-16T04:30:43.711Z,1.70
2023-05-16T04:33:10.053Z,1.67
2023-05-16T04:35:37.608Z,1.63
2023-05-16T04:38:04.668Z,1.80
2023-05-16T04:40:31.273Z,1.77
2023-05-16T04:42:57.781Z,2.42
2023-05-16T04:45:24.582Z,1.70
2023-05-16T04:47:51.534Z,1.40
2023-05-16T04:50:18.393Z,1.80
2023-05-16T04:52:44.754Z,1.50
2023-05-16T04:55:11.421Z,1.92
2023-05-16T04:57:37.833Z,2.10
2023-05-16T05:00:08.158Z,1.70
2023-05-16T05:02:34.574Z,1.70
2023-05-16T05:05:01.062Z,1.85
2023-05-16T05:07:29.098Z,1.80
2023-05-16T05:09:56.049Z,1.55
2023-05-16T05:12:22.798Z,1.50
2023-05-16T05:14:49.729Z,1.40
2023-05-16T05:17:16.788Z,1.63
2023-05-16T05:19:43.340Z,1.85
2023-05-16T05:22:09.806Z,1.77
2023-05-16T05:24:36.289Z,1.90
2023-05-16T05:27:02.852Z,1.80
2023-05-16T05:29:29.927Z,1.33
2023-05-16T05:31:56.334Z,1.60
2023-05-16T05:34:22.810Z,1.25
2023-05-16T05:36:49.208Z,2.00
2023-05-16T05:39:15.705Z,1.65
2023-05-16T05:41:42.082Z,1.67
2023-05-16T05:44:08.423Z,1.58
2023-05-16T05:46:35.276Z,1.45
2023-05-16T05:49:01.972Z,1.30
2023-05-16T05:51:28.489Z,1.92
2023-05-16T05:53:55.879Z,1.60
2023-05-16T05:56:22.385Z,1.83
2023-05-16T05:58:48.750Z,1.73
2023-05-16T06:01:15.064Z,1.15
2023-05-16T06:03:41.592Z,1.10
2023-05-16T06:06:08.379Z,1.40
2023-05-16T06:08:34.971Z,1.20
2023-05-16T06:11:01.797Z,1.38
2023-05-16T06:13:28.150Z,1.23
2023-05-16T06:15:54.761Z,1.50
2023-05-16T06:18:21.274Z,1.20
2023-05-16T06:20:47.624Z,1.70
2023-05-16T06:23:14.101Z,1.30
2023-05-16T06:25:40.457Z,1.02
2023-05-16T06:28:06.868Z,1.25
2023-05-16T06:30:33.234Z,1.20
2023-05-16T06:32:59.699Z,1.20
2023-05-16T06:35:26.459Z,1.30
2023-05-16T06:37:53.060Z,1.38
2023-05-16T06:40:19.538Z,1.23
2023-05-16T06:42:46.094Z,0.90
2023-05-16T06:45:12.521Z,1.25
2023-05-16T06:47:39.039Z,1.27
2023-05-16T06:50:06.290Z,1.38
2023-05-16T06:52:32.703Z,1.05
2023-05-16T06:54:59.120Z,1.40
2023-05-16T06:57:26.129Z,1.10
2023-05-16T06:59:52.539Z,1.40
2023-05-16T07:02:19.066Z,0.93
2023-05-16T07:04:45.697Z,0.88
2023-05-16T07:07:12.207Z,1.05
2023-05-16T07:09:38.716Z,1.30
2023-05-16T07:12:05.771Z,1.00
2023-05-16T07:14:32.264Z,1.00
2023-05-16T07:16:58.709Z,1.10
2023-05-16T07:19:25.675Z,0.90
2023-05-16T07:21:53.319Z,1.00
2023-05-16T07:24:19.776Z,1.20
2023-05-16T07:26:46.162Z,0.98
2023-05-16T07:29:12.672Z,0.90
2023-05-16T07:31:39.330Z,1.00
2023-05-16T07:34:06.516Z,1.02
2023-05-16T07:36:34.953Z,0.90
2023-05-16T07:39:01.381Z,1.65
2023-05-16T07:41:29.554Z,1.10
2023-05-16T07:43:55.928Z,1.10
2023-05-16T07:46:22.803Z,0.75
2023-05-16T07:48:50.240Z,0.90
2023-05-16T07:53:43.066Z,0.93
2023-05-16T07:56:09.540Z,1.00
2023-05-16T07:58:36.285Z,0.98
2023-05-16T08:01:02.892Z,1.35
2023-05-16T08:03:29.368Z,0.90
2023-05-16T08:05:56.019Z,1.05
2023-05-16T08:08:22.539Z,1.10
2023-05-16T08:10:48.974Z,0.85
2023-05-16T08:13:15.350Z,0.93
2023-05-16T08:15:42.513Z,0.90
2023-05-16T08:18:14.837Z,1.23
2023-05-16T08:20:42.130Z,1.00
2023-05-16T08:23:09.677Z,1.30
2023-05-16T08:25:36.246Z,1.35
2023-05-16T08:28:02.668Z,0.93
2023-05-16T08:30:29.622Z,1.10
2023-05-16T08:32:56.080Z,1.02
2023-05-16T08:35:22.539Z,1.20
2023-05-16T08:37:48.977Z,1.00
2023-05-16T08:40:16.228Z,1.13
2023-05-16T08:42:44.704Z,1.30
2023-05-16T08:45:15.146Z,1.48
2023-05-16T08:47:43.938Z,0.95
2023-05-16T08:50:10.965Z,0.80
2023-05-16T08:52:45.199Z,1.00
2023-05-16T08:55:13.622Z,1.35
2023-05-16T08:57:40.958Z,1.13
2023-05-16T09:00:12.391Z,1.35
2023-05-16T09:02:43.218Z,1.00
2023-05-16T09:05:12.250Z,1.50
2023-05-16T09:07:38.863Z,1.08
2023-05-16T09:10:06.902Z,1.48
2023-05-16T09:12:34.597Z,1.15
2023-05-16T09:15:07.320Z,1.15
2023-05-16T09:17:43.264Z,1.55
2023-05-16T09:20:11.916Z,0.95
2023-05-16T09:22:39.101Z,1.20
2023-05-16T09:27:35.329Z,1.20
2023-05-16T09:30:02.372Z,0.80
2023-05-16T09:32:28.882Z,0.90
2023-05-16T09:34:57.767Z,1.52
2023-05-16T09:37:24.345Z,0.80
2023-05-16T09:39:53.654Z,1.02
2023-05-16T09:42:21.072Z,0.82
2023-05-16T09:44:50.262Z,0.90
2023-05-16T09:47:21.293Z,0.90
2023-05-16T09:49:54.457Z,0.90
2023-05-16T09:52:21.313Z,1.17
2023-05-16T09:54:51.110Z,0.90
2023-05-16T09:57:21.739Z,0.93
2023-05-16T09:59:48.392Z,1.17
2023-05-16T10:02:15.914Z,0.90
2023-05-16T10:04:42.723Z,0.98
2023-05-16T10:07:10.045Z,0.90
2023-05-16T10:09:39.452Z,1.00
2023-05-16T10:12:08.849Z,0.70
2023-05-16T10:14:41.184Z,1.08
2023-05-16T10:17:08.599Z,0.80
2023-05-16T10:19:38.590Z,0.93
2023-05-16T10:22:07.237Z,1.13
2023-05-16T10:24:47.034Z,1.02
2023-05-16T10:27:15.842Z,1.00
2023-05-16T10:29:54.309Z,0.80
2023-05-16T10:32:23.587Z,1.08
2023-05-16T10:34:51.070Z,1.00
2023-05-16T10:37:17.613Z,0.90
2023-05-16T10:39:45.290Z,1.10
2023-05-16T10:42:14.209Z,0.80
2023-05-16T10:44:42.745Z,1.00
2023-05-16T10:47:19.983Z,1.33
2023-05-16T10:49:46.964Z,1.10
2023-05-16T10:52:15.574Z,0.90
2023-05-16T10:54:52.178Z,1.15
2023-05-16T10:57:23.255Z,1.23
2023-05-16T10:59:51.284Z,1.00
2023-05-16T11:02:34.481Z,0.77
2023-05-16T11:05:02.757Z,0.95
2023-05-16T11:07:34.701Z,0.77
2023-05-16T11:10:08.927Z,1.20
2023-05-16T11:12:44.470Z,1.15
2023-05-16T11:15:31.661Z,1.10
2023-05-16T11:20:39.225Z,0.98
2023-05-16T11:23:21.314Z,0.68
2023-05-16T11:25:51.193Z,0.90
2023-05-16T11:28:19.941Z,1.00
2023-05-16T11:30:51.998Z,1.00
2023-05-16T11:33:18.827Z,1.10
2023-05-16T11:36:14.489Z,1.08
2023-05-16T11:38:43.638Z,0.98
2023-05-16T11:41:10.615Z,1.63
2023-05-16T11:43:46.254Z,0.85
2023-05-16T11:46:13.849Z,0.93
2023-05-16T11:48:41.124Z,1.23
2023-05-16T11:51:08.949Z,0.65
2023-05-16T11:53:35.820Z,0.95
2023-05-16T11:56:02.342Z,0.90
2023-05-16T11:58:29.359Z,0.88
2023-05-16T12:00:55.922Z,1.20
2023-05-16T12:03:23.995Z,1.00
2023-05-16T12:05:54.576Z,1.00
2023-05-16T12:08:27.647Z,1.10
2023-05-16T12:10:54.434Z,1.48
2023-05-16T12:13:23.199Z,1.00
2023-05-16T12:15:51.861Z,1.17
2023-05-16T12:18:18.626Z,1.00
2023-05-16T12:20:45.457Z,0.90
2023-05-16T12:23:14.934Z,0.90
2023-05-16T12:25:46.946Z,1.08
2023-05-16T12:28:14.359Z,1.10
2023-05-16T12:30:43.292Z,1.20
2023-05-16T12:33:12.843Z,1.05
2023-05-16T12:35:43.736Z,1.10
2023-05-16T12:38:12.153Z,0.80
2023-05-16T12:40:39.948Z,0.93
2023-05-16T12:43:15.464Z,1.00
2023-05-16T12:45:43.285Z,1.02
2023-05-16T12:48:14.179Z,1.20
2023-05-16T12:50:41.737Z,0.90
2023-05-16T12:55:38.958Z,1.40
2023-05-16T12:58:05.950Z,1.23
2023-05-16T13:00:32.408Z,1.00
2023-05-16T13:02:58.995Z,1.08
2023-05-16T13:05:25.612Z,1.20
2023-05-16T13:07:52.057Z,1.20
2023-05-16T13:10:19.108Z,1.10
2023-05-16T13:12:46.552Z,1.52
2023-05-16T13:15:13.779Z,1.10
2023-05-16T13:17:42.337Z,1.00
2023-05-16T13:20:10.098Z,1.35
2023-05-16T13:22:37.134Z,1.20
2023-05-16T13:25:04.626Z,1.00
2023-05-16T13:27:31.077Z,0.95
2023-05-16T13:29:58.373Z,1.20
2023-05-16T13:32:25.422Z,1.10
2023-05-16T13:34:52.617Z,1.15
2023-05-16T13:37:19.382Z,1.40
2023-05-16T13:39:45.848Z,1.17
2023-05-16T13:42:12.376Z,0.82
2023-05-16T13:44:39.109Z,1.20
2023-05-16T13:47:05.661Z,0.90
2023-05-16T13:49:32.091Z,1.00
2023-05-16T13:51:58.937Z,1.20
2023-05-16T13:54:25.424Z,0.90
2023-05-16T13:56:51.877Z,1.17
2023-05-16T13:59:31.987Z,0.90
2023-05-16T14:02:04.908Z,0.90
2023-05-16T14:04:31.364Z,1.00
2023-05-16T14:06:58.097Z,0.73
2023-05-16T14:09:24.646Z,1.20
2023-05-16T14:11:51.396Z,1.20
2023-05-16T14:14:17.815Z,1.20
2023-05-16T14:16:45.936Z,1.08
2023-05-16T14:19:14.814Z,1.15
2023-05-16T14:21:42.448Z,1.52
2023-05-16T14:24:08.874Z,1.00
2023-05-16T14:26:35.401Z,1.13
2023-05-16T14:29:02.153Z,1.13
2023-05-16T14:31:29.940Z,0.90
2023-05-16T14:33:56.342Z,0.90
2023-05-16T14:36:22.765Z,0.75
2023-05-16T14:38:49.182Z,1.00
2023-05-16T14:41:16.247Z,1.15
2023-05-16T14:43:44.396Z,1.20
2023-05-16T14:46:11.202Z,1.10
2023-05-16T14:48:37.980Z,1.00
2023-05-16T14:51:05.108Z,1.17
2023-05-16T14:53:31.575Z,1.00
2023-05-16T14:55:58.545Z,0.90
2023-05-16T14:58:25.032Z,0.98
2023-05-16T15:00:51.505Z,0.90
2023-05-16T15:03:17.989Z,1.10
2023-05-16T15:05:44.943Z,1.20
2023-05-16T15:08:11.856Z,1.02
2023-05-16T15:10:38.231Z,1.10
2023-05-16T15:13:04.615Z,1.15
2023-05-16T15:15:31.461Z,0.80
2023-05-16T15:17:57.858Z,0.70
2023-05-16T15:20:25.913Z,1.00
2023-05-16T15:22:52.485Z,0.95
2023-05-16T15:25:19.061Z,0.90
2023-05-16T15:27:45.450Z,0.80
2023-05-16T15:30:12.236Z,1.05
2023-05-16T15:32:38.659Z,0.90
2023-05-16T15:35:06.091Z,0.75
2023-05-16T15:39:59.038Z,0.88
2023-05-16T15:42:25.539Z,1.15
2023-05-16T15:44:51.895Z,1.00
2023-05-16T15:47:18.316Z,1.00
2023-05-16T15:49:44.843Z,1.38
2023-05-16T15:52:11.297Z,1.40
2023-05-16T15:54:37.719Z,3.08
2023-05-16T15:57:04.296Z,1.88
2023-05-16T15:59:30.783Z,1.15
2023-05-16T16:01:57.262Z,1.27
2023-05-16T16:04:23.958Z,1.92
2023-05-16T16:06:50.516Z,1.35
2023-05-16T16:09:17.516Z,1.50
2023-05-16T16:11:43.892Z,1.25
2023-05-16T16:14:11.034Z,1.25
2023-05-16T16:16:39.584Z,1.45
2023-05-16T16:19:07.173Z,1.67
2023-05-16T16:24:00.841Z,1.75
2023-05-16T16:26:27.494Z,1.52
2023-05-16T16:28:54.015Z,1.40
2023-05-16T16:31:20.736Z,1.85
2023-05-16T16:33:49.040Z,4.32
2023-05-16T16:36:16.401Z,2.13
2023-05-16T16:38:42.806Z,2.25
2023-05-16T16:41:09.962Z,1.92
2023-05-16T16:43:39.648Z,1.58
2023-05-16T16:46:07.315Z,2.70
2023-05-16T16:48:34.300Z,1.70
2023-05-16T16:51:03.947Z,1.60
2023-05-16T16:53:30.550Z,1.35
2023-05-16T16:55:56.965Z,1.73
2023-05-16T16:58:23.589Z,1.80
2023-05-16T17:00:50.119Z,1.60
2023-05-16T17:03:16.987Z,1.75
2023-05-16T17:05:44.484Z,1.63
2023-05-16T17:08:11.001Z,1.85
2023-05-16T17:10:37.720Z,1.98
2023-05-16T17:13:07.277Z,2.05
2023-05-16T17:15:34.063Z,2.33
2023-05-16T17:18:00.559Z,2.20
2023-05-16T17:20:27.191Z,1.70
2023-05-16T17:22:53.636Z,2.20
2023-05-16T17:25:20.032Z,2.75
2023-05-16T17:27:46.618Z,2.42
2023-05-16T17:30:13.125Z,2.10
2023-05-16T17:32:39.953Z,2.70
2023-05-16T17:35:07.434Z,2.10
2023-05-16T17:37:33.954Z,2.20
2023-05-16T17:40:00.552Z,1.90
2023-05-16T17:42:27.260Z,1.95
2023-05-16T17:44:53.698Z,1.30
2023-05-16T17:47:20.528Z,1.80
2023-05-16T17:49:47.240Z,1.70
2023-05-16T17:52:14.591Z,1.45
2023-05-16T17:54:41.090Z,1.77
2023-05-16T17:57:07.513Z,1.80
2023-05-16T17:59:33.937Z,1.83
2023-05-16T18:02:00.380Z,1.40
2023-05-16T18:04:26.754Z,1.50
2023-05-16T18:06:53.210Z,1.60
2023-05-16T18:09:20.630Z,1.20
2023-05-16T18:11:59.058Z,1.90
2023-05-16T18:14:25.823Z,1.60
2023-05-16T18:16:52.321Z,1.45
2023-05-16T18:19:19.583Z,1.70
2023-05-16T18:21:46.123Z,1.67
2023-05-16T18:24:13.147Z,1.50
2023-05-16T18:26:39.602Z,2.25
2023-05-16T18:29:06.035Z,1.52
2023-05-16T18:31:33.763Z,1.77
2023-05-16T18:34:03.623Z,1.50
2023-05-16T18:36:31.089Z,1.60
2023-05-16T18:41:23.857Z,1.98
2023-05-16T18:43:50.269Z,1.60
2023-05-16T18:46:16.632Z,1.52
2023-05-16T18:48:43.263Z,1.80
2023-05-16T18:51:10.051Z,2.03
2023-05-16T18:53:36.560Z,1.70
2023-05-16T18:56:03.119Z,2.03
2023-05-16T18:58:29.586Z,2.05
2023-05-16T19:00:55.982Z,1.88
2023-05-16T19:03:22.520Z,1.77
2023-05-16T19:05:49.176Z,1.80
2023-05-16T19:08:15.876Z,1.40
2023-05-16T19:10:42.280Z,1.83
2023-05-16T19:13:08.860Z,1.80
2023-05-16T19:15:37.087Z,1.50
2023-05-16T19:18:04.873Z,1.80
2023-05-16T19:20:33.271Z,1.60
2023-05-16T19:22:59.807Z,2.30
2023-05-16T19:25:27.044Z,1.92
2023-05-16T19:27:54.204Z,1.73
2023-05-16T19:30:20.924Z,2.50
2023-05-16T19:32:47.413Z,1.75
2023-05-16T19:35:13.988Z,1.88
2023-05-16T19:37:40.638Z,1.60
2023-05-16T19:40:07.786Z,2.05
2023-05-16T19:42:34.169Z,1.80
2023-05-16T19:45:00.560Z,1.90
2023-05-16T19:47:27.090Z,1.95
2023-05-16T19:49:53.673Z,2.33
2023-05-16T19:52:20.040Z,2.10
2023-05-16T19:54:47.616Z,2.30
2023-05-16T19:57:14.046Z,1.90
2023-05-16T19:59:40.480Z,1.90
2023-05-16T20:02:06.987Z,1.90
2023-05-16T20:04:33.655Z,2.17
2023-05-16T20:07:00.529Z,1.88
2023-05-16T20:09:28.420Z,2.15
2023-05-16T20:11:57.179Z,2.65
2023-05-16T20:14:23.601Z,2.65
2023-05-16T20:16:51.332Z,2.70
2023-05-16T20:19:19.064Z,2.33
2023-05-16T20:21:45.996Z,2.00
2023-05-16T20:24:12.434Z,2.03
2023-05-16T20:26:38.771Z,2.05
2023-05-16T20:29:05.137Z,1.92
2023-05-16T20:31:31.553Z,2.30
2023-05-16T20:33:58.050Z,1.75
2023-05-16T20:36:24.653Z,2.22
2023-05-16T20:38:51.302Z,2.05
2023-05-16T20:41:17.728Z,2.05
2023-05-16T20:43:44.146Z,1.90
2023-05-16T20:46:10.542Z,2.42
2023-05-16T20:48:36.917Z,2.33
2023-05-16T20:51:03.848Z,2.10
2023-05-16T20:53:30.405Z,1.90
2023-05-16T20:55:56.909Z,2.30
2023-05-16T20:58:23.410Z,2.38
2023-05-16T21:00:49.810Z,2.38
2023-05-16T21:03:16.383Z,2.35
2023-05-16T21:05:42.821Z,2.17
2023-05-16T21:08:09.225Z,2.17
2023-05-16T21:10:35.719Z,2.50
2023-05-16T21:13:02.181Z,2.17
2023-05-16T21:15:28.938Z,2.72
2023-05-16T21:17:55.718Z,2.83
2023-05-16T21:20:22.136Z,2.10
2023-05-16T21:22:48.534Z,2.50
2023-05-16T21:25:14.928Z,2.42
2023-05-16T21:27:41.335Z,2.13
2023-05-16T21:30:08.226Z,2.50
2023-05-16T21:32:34.734Z,2.83
2023-05-16T21:35:01.304Z,3.55
2023-05-16T21:37:27.718Z,2.53
2023-05-16T21:39:54.738Z,2.88
2023-05-16T21:42:21.267Z,2.58
2023-05-16T21:44:47.730Z,3.10
2023-05-16T21:47:14.161Z,2.63
2023-05-16T21:49:40.573Z,2.53
2023-05-16T21:52:07.783Z,2.97
2023-05-16T21:54:34.466Z,2.70
2023-05-16T21:57:00.851Z,2.75
2023-05-16T21:59:27.275Z,2.38
2023-05-16T22:01:53.660Z,2.70
2023-05-16T22:04:20.315Z,2.80
2023-05-16T22:06:46.922Z,3.15
2023-05-16T22:09:13.561Z,2.92
2023-05-16T22:11:40.051Z,2.85
2023-05-16T22:14:06.607Z,2.95
2023-05-16T22:16:35.440Z,2.60
2023-05-16T22:19:03.198Z,2.75
2023-05-16T22:21:29.751Z,2.65
2023-05-16T22:23:56.118Z,2.95
2023-05-16T22:26:22.673Z,2.95
2023-05-16T22:28:49.098Z,2.80
2023-05-16T22:31:15.521Z,2.83
2023-05-16T22:33:41.964Z,2.83
2023-05-16T22:36:08.792Z,3.58
2023-05-16T22:38:35.285Z,3.22
2023-05-16T22:41:01.806Z,3.38
2023-05-16T22:43:28.225Z,3.00
2023-05-16T22:45:54.721Z,3.13
2023-05-16T22:48:21.377Z,2.90
2023-05-16T22:50:47.832Z,3.00
2023-05-16T22:53:14.238Z,3.30
2023-05-16T22:55:40.700Z,2.83
2023-05-16T22:58:07.081Z,3.63
2023-05-16T23:00:33.649Z,3.53
2023-05-16T23:03:00.164Z,3.20
2023-05-16T23:05:26.719Z,3.30
2023-05-16T23:07:53.533Z,3.50
2023-05-16T23:10:19.949Z,3.15
2023-05-16T23:12:46.408Z,3.58
2023-05-16T23:15:13.299Z,3.53
2023-05-16T23:17:40.183Z,2.70
2023-05-16T23:20:07.567Z,3.20
2023-05-16T23:22:34.157Z,3.58
2023-05-16T23:25:00.613Z,3.30
2023-05-16T23:27:27.071Z,3.33
2023-05-16T23:29:53.558Z,3.10
2023-05-16T23:32:20.098Z,2.97
2023-05-16T23:34:46.554Z,3.13
2023-05-16T23:37:12.963Z,3.72
2023-05-16T23:39:39.400Z,3.33
2023-05-16T23:42:05.956Z,3.72
2023-05-16T23:44:33.478Z,3.20
2023-05-16T23:47:00.529Z,3.92
2023-05-16T23:49:26.929Z,3.20
2023-05-16T23:51:58.011Z,3.20
2023-05-16T23:54:25.728Z,3.28
2023-05-16T23:56:52.276Z,3.47
2023-05-16T23:59:21.374Z,3.40
